sensor_id;sensor_type;location;lat;lon;timestamp;temperature;humidity
38428;DHT22;24211;49.980;19.776;2022-12-20T00:01:31;2.00;99.90
38428;DHT22;24211;49.980;19.776;2022-12-20T00:04:03;1.90;99.90
38428;DHT22;24211;49.980;19.776;2022-12-20T00:06:34;2.00;99.90
38428;DHT22;24211;49.980;19.776;2022-12-20T00:09:05;2.00;99.90
38428;DHT22;24211;49.980;19.776;2022-12-20T00:11:33;2.00;99.90
38428;DHT22;24211;49.980;19.776;2022-12-20T00:14:01;2.00;99.90
38428;DHT22;24211;49.980;19.776;2022-12-20T00:16:29;2.00;99.90
38428;DHT22;24211;49.980;19.776;2022-12-20T00:18:59;2.00;99.90
38428;DHT22;24211;49.980;19.776;2022-12-20T00:21:28;1.90;99.90
38428;DHT22;24211;49.980;19.776;2022-12-20T00:23:57;2.00;99.90
38428;DHT22;24211;49.980;19.776;2022-12-20T00:26:27;2.00;99.90
38428;DHT22;24211;49.980;19.776;2022-12-20T00:28:57;2.00;99.90
38428;DHT22;24211;49.980;19.776;2022-12-20T00:31:27;2.00;99.90
38428;DHT22;24211;49.980;19.776;2022-12-20T00:33:56;2.00;99.90
38428;DHT22;24211;49.980;19.776;2022-12-20T00:36:27;2.00;99.90
38428;DHT22;24211;49.980;19.776;2022-12-20T00:38:57;2.00;99.90
38428;DHT22;24211;49.980;19.776;2022-12-20T00:41:28;2.00;99.90
38428;DHT22;24211;49.980;19.776;2022-12-20T00:43:57;2.00;99.90
38428;DHT22;24211;49.980;19.776;2022-12-20T00:46:25;2.00;99.90
38428;DHT22;24211;49.980;19.776;2022-12-20T00:48:54;2.00;99.90
38428;DHT22;24211;49.980;19.776;2022-12-20T00:51:25;2.00;99.90
38428;DHT22;24211;49.980;19.776;2022-12-20T00:53:55;2.00;99.90
38428;DHT22;24211;49.980;19.776;2022-12-20T00:56:22;2.00;99.90
38428;DHT22;24211;49.980;19.776;2022-12-20T00:58:52;2.00;99.90
38428;DHT22;24211;49.980;19.776;2022-12-20T01:01:23;2.00;99.90
38428;DHT22;24211;49.980;19.776;2022-12-20T01:03:53;2.00;99.90
38428;DHT22;24211;49.980;19.776;2022-12-20T01:06:30;2.10;99.90
38428;DHT22;24211;49.980;19.776;2022-12-20T01:08:58;2.10;99.90
38428;DHT22;24211;49.980;19.776;2022-12-20T01:11:32;2.10;99.90
38428;DHT22;24211;49.980;19.776;2022-12-20T01:14:07;2.10;99.90
38428;DHT22;24211;49.980;19.776;2022-12-20T01:16:41;2.10;99.90
38428;DHT22;24211;49.980;19.776;2022-12-20T01:23:19;2.10;99.90
38428;DHT22;24211;49.980;19.776;2022-12-20T01:25:50;2.10;99.90
38428;DHT22;24211;49.980;19.776;2022-12-20T01:28:17;2.10;99.90
38428;DHT22;24211;49.980;19.776;2022-12-20T01:30:44;2.10;99.90
38428;DHT22;24211;49.980;19.776;2022-12-20T01:33:18;2.10;99.90
38428;DHT22;24211;49.980;19.776;2022-12-20T01:35:56;2.10;99.90
38428;DHT22;24211;49.980;19.776;2022-12-20T01:38:28;2.10;99.90
38428;DHT22;24211;49.980;19.776;2022-12-20T01:40:56;2.10;99.90
38428;DHT22;24211;49.980;19.776;2022-12-20T01:43:25;2.10;99.90
38428;DHT22;24211;49.980;19.776;2022-12-20T01:46:11;2.10;99.90
38428;DHT22;24211;49.980;19.776;2022-12-20T01:48:38;2.10;99.90
38428;DHT22;24211;49.980;19.776;2022-12-20T01:51:11;2.10;99.90
38428;DHT22;24211;49.980;19.776;2022-12-20T01:53:38;2.10;99.90
38428;DHT22;24211;49.980;19.776;2022-12-20T01:56:06;2.10;99.90
38428;DHT22;24211;49.980;19.776;2022-12-20T01:58:36;2.10;99.90
38428;DHT22;24211;49.980;19.776;2022-12-20T02:01:06;2.10;99.90
38428;DHT22;24211;49.980;19.776;2022-12-20T02:03:33;2.10;99.90
38428;DHT22;24211;49.980;19.776;2022-12-20T02:06:17;2.00;99.90
38428;DHT22;24211;49.980;19.776;2022-12-20T02:08:47;2.10;99.90
38428;DHT22;24211;49.980;19.776;2022-12-20T02:11:27;2.00;99.90
38428;DHT22;24211;49.980;19.776;2022-12-20T02:16:47;2.00;99.90
38428;DHT22;24211;49.980;19.776;2022-12-20T02:22:51;2.10;99.90
38428;DHT22;24211;49.980;19.776;2022-12-20T02:32:51;2.10;99.90
38428;DHT22;24211;49.980;19.776;2022-12-20T02:39:15;2.10;99.90
38428;DHT22;24211;49.980;19.776;2022-12-20T02:41:46;2.10;99.90
38428;DHT22;24211;49.980;19.776;2022-12-20T02:44:20;2.10;99.90
38428;DHT22;24211;49.980;19.776;2022-12-20T02:47:22;2.20;99.90
38428;DHT22;24211;49.980;19.776;2022-12-20T02:49:55;2.20;99.90
38428;DHT22;24211;49.980;19.776;2022-12-20T02:52:24;2.10;99.90
38428;DHT22;24211;49.980;19.776;2022-12-20T02:54:54;2.20;99.90
38428;DHT22;24211;49.980;19.776;2022-12-20T02:57:30;2.10;99.90
38428;DHT22;24211;49.980;19.776;2022-12-20T03:00:15;2.20;99.90
38428;DHT22;24211;49.980;19.776;2022-12-20T03:02:49;2.20;99.90
38428;DHT22;24211;49.980;19.776;2022-12-20T03:05:44;2.20;99.90
38428;DHT22;24211;49.980;19.776;2022-12-20T03:08:17;2.20;99.90
38428;DHT22;24211;49.980;19.776;2022-12-20T03:10:48;2.20;99.90
38428;DHT22;24211;49.980;19.776;2022-12-20T03:13:16;2.20;99.90
38428;DHT22;24211;49.980;19.776;2022-12-20T03:15:53;2.20;99.90
38428;DHT22;24211;49.980;19.776;2022-12-20T03:18:20;2.20;99.90
38428;DHT22;24211;49.980;19.776;2022-12-20T03:20:47;2.20;99.90
38428;DHT22;24211;49.980;19.776;2022-12-20T03:23:15;2.20;99.90
38428;DHT22;24211;49.980;19.776;2022-12-20T03:25:42;2.30;99.90
38428;DHT22;24211;49.980;19.776;2022-12-20T03:28:15;2.30;99.90
38428;DHT22;24211;49.980;19.776;2022-12-20T03:30:42;2.30;99.90
38428;DHT22;24211;49.980;19.776;2022-12-20T03:33:10;2.30;99.90
38428;DHT22;24211;49.980;19.776;2022-12-20T03:35:39;2.30;99.90
38428;DHT22;24211;49.980;19.776;2022-12-20T03:38:08;2.30;99.90
38428;DHT22;24211;49.980;19.776;2022-12-20T03:40:36;2.30;99.90
38428;DHT22;24211;49.980;19.776;2022-12-20T03:43:03;2.30;99.90
38428;DHT22;24211;49.980;19.776;2022-12-20T03:45:30;2.30;99.90
38428;DHT22;24211;49.980;19.776;2022-12-20T03:47:58;2.30;99.90
38428;DHT22;24211;49.980;19.776;2022-12-20T03:50:27;2.30;99.90
38428;DHT22;24211;49.980;19.776;2022-12-20T03:52:54;2.30;99.90
38428;DHT22;24211;49.980;19.776;2022-12-20T03:55:22;2.30;99.90
38428;DHT22;24211;49.980;19.776;2022-12-20T03:57:50;2.30;99.90
38428;DHT22;24211;49.980;19.776;2022-12-20T04:00:43;2.30;99.90
38428;DHT22;24211;49.980;19.776;2022-12-20T04:03:36;2.30;99.90
38428;DHT22;24211;49.980;19.776;2022-12-20T04:06:04;2.30;99.90
38428;DHT22;24211;49.980;19.776;2022-12-20T04:08:31;2.30;99.90
38428;DHT22;24211;49.980;19.776;2022-12-20T04:11:05;2.30;99.90
38428;DHT22;24211;49.980;19.776;2022-12-20T04:14:01;2.30;99.90
38428;DHT22;24211;49.980;19.776;2022-12-20T04:16:29;2.30;99.90
38428;DHT22;24211;49.980;19.776;2022-12-20T04:18:57;2.30;99.90
38428;DHT22;24211;49.980;19.776;2022-12-20T04:21:30;2.30;99.90
38428;DHT22;24211;49.980;19.776;2022-12-20T04:24:01;2.30;99.90
38428;DHT22;24211;49.980;19.776;2022-12-20T04:26:39;2.30;99.90
38428;DHT22;24211;49.980;19.776;2022-12-20T04:29:07;2.30;99.90
38428;DHT22;24211;49.980;19.776;2022-12-20T04:31:34;2.30;99.90
38428;DHT22;24211;49.980;19.776;2022-12-20T04:34:04;2.40;99.90
38428;DHT22;24211;49.980;19.776;2022-12-20T04:36:33;2.40;99.90
38428;DHT22;24211;49.980;19.776;2022-12-20T04:39:07;2.30;99.90
38428;DHT22;24211;49.980;19.776;2022-12-20T04:41:59;2.30;99.90
38428;DHT22;24211;49.980;19.776;2022-12-20T04:44:27;2.40;99.90
38428;DHT22;24211;49.980;19.776;2022-12-20T04:46:54;2.40;99.90
38428;DHT22;24211;49.980;19.776;2022-12-20T04:49:22;2.40;99.90
38428;DHT22;24211;49.980;19.776;2022-12-20T04:51:49;2.30;99.90
38428;DHT22;24211;49.980;19.776;2022-12-20T04:54:17;2.30;99.90
38428;DHT22;24211;49.980;19.776;2022-12-20T04:56:57;2.30;99.90
38428;DHT22;24211;49.980;19.776;2022-12-20T04:59:25;2.30;99.90
38428;DHT22;24211;49.980;19.776;2022-12-20T05:01:54;2.30;99.90
38428;DHT22;24211;49.980;19.776;2022-12-20T05:04:42;2.40;99.90
38428;DHT22;24211;49.980;19.776;2022-12-20T05:07:09;2.40;99.90
38428;DHT22;24211;49.980;19.776;2022-12-20T05:09:38;2.40;99.90
38428;DHT22;24211;49.980;19.776;2022-12-20T05:12:06;2.40;99.90
38428;DHT22;24211;49.980;19.776;2022-12-20T05:14:36;2.40;99.90
38428;DHT22;24211;49.980;19.776;2022-12-20T05:17:05;2.40;99.90
38428;DHT22;24211;49.980;19.776;2022-12-20T05:19:32;2.40;99.90
38428;DHT22;24211;49.980;19.776;2022-12-20T05:22:00;2.40;99.90
38428;DHT22;24211;49.980;19.776;2022-12-20T05:25:01;2.40;99.90
38428;DHT22;24211;49.980;19.776;2022-12-20T05:27:48;2.40;99.90
38428;DHT22;24211;49.980;19.776;2022-12-20T05:30:15;2.40;99.90
38428;DHT22;24211;49.980;19.776;2022-12-20T05:32:43;2.40;99.90
38428;DHT22;24211;49.980;19.776;2022-12-20T05:35:11;2.50;99.90
38428;DHT22;24211;49.980;19.776;2022-12-20T05:37:39;2.50;99.90
38428;DHT22;24211;49.980;19.776;2022-12-20T05:40:15;2.40;99.90
38428;DHT22;24211;49.980;19.776;2022-12-20T05:42:44;2.40;99.90
38428;DHT22;24211;49.980;19.776;2022-12-20T05:45:12;2.40;99.90
38428;DHT22;24211;49.980;19.776;2022-12-20T05:47:48;2.50;99.90
38428;DHT22;24211;49.980;19.776;2022-12-20T05:50:15;2.50;99.90
38428;DHT22;24211;49.980;19.776;2022-12-20T05:53:03;2.50;99.90
38428;DHT22;24211;49.980;19.776;2022-12-20T05:55:44;2.50;99.90
38428;DHT22;24211;49.980;19.776;2022-12-20T05:58:18;2.50;99.90
38428;DHT22;24211;49.980;19.776;2022-12-20T06:00:53;2.50;99.90
38428;DHT22;24211;49.980;19.776;2022-12-20T06:03:21;2.50;99.90
38428;DHT22;24211;49.980;19.776;2022-12-20T06:05:49;2.60;99.90
38428;DHT22;24211;49.980;19.776;2022-12-20T06:08:24;2.60;99.90
38428;DHT22;24211;49.980;19.776;2022-12-20T06:10:52;2.60;99.90
38428;DHT22;24211;49.980;19.776;2022-12-20T06:13:20;2.60;99.90
38428;DHT22;24211;49.980;19.776;2022-12-20T06:15:50;2.60;99.90
38428;DHT22;24211;49.980;19.776;2022-12-20T06:18:19;2.60;99.90
38428;DHT22;24211;49.980;19.776;2022-12-20T06:20:53;2.60;99.90
38428;DHT22;24211;49.980;19.776;2022-12-20T06:23:22;2.60;99.90
38428;DHT22;24211;49.980;19.776;2022-12-20T06:26:03;2.60;99.90
38428;DHT22;24211;49.980;19.776;2022-12-20T06:28:34;2.60;99.90
38428;DHT22;24211;49.980;19.776;2022-12-20T06:31:09;2.50;99.90
38428;DHT22;24211;49.980;19.776;2022-12-20T06:33:43;2.60;99.90
38428;DHT22;24211;49.980;19.776;2022-12-20T06:36:13;2.60;99.90
38428;DHT22;24211;49.980;19.776;2022-12-20T06:38:41;2.50;99.90
38428;DHT22;24211;49.980;19.776;2022-12-20T06:41:09;2.60;99.90
38428;DHT22;24211;49.980;19.776;2022-12-20T06:43:38;2.60;99.90
38428;DHT22;24211;49.980;19.776;2022-12-20T06:46:07;2.60;99.90
38428;DHT22;24211;49.980;19.776;2022-12-20T06:48:35;2.60;99.90
38428;DHT22;24211;49.980;19.776;2022-12-20T06:51:04;2.50;99.90
38428;DHT22;24211;49.980;19.776;2022-12-20T06:53:31;2.60;99.90
38428;DHT22;24211;49.980;19.776;2022-12-20T06:55:58;2.60;99.90
38428;DHT22;24211;49.980;19.776;2022-12-20T06:58:25;2.60;99.90
38428;DHT22;24211;49.980;19.776;2022-12-20T07:00:53;2.60;99.90
38428;DHT22;24211;49.980;19.776;2022-12-20T07:03:21;2.60;99.90
38428;DHT22;24211;49.980;19.776;2022-12-20T07:05:52;2.60;99.90
38428;DHT22;24211;49.980;19.776;2022-12-20T07:08:21;2.60;99.90
38428;DHT22;24211;49.980;19.776;2022-12-20T07:10:49;2.60;99.90
38428;DHT22;24211;49.980;19.776;2022-12-20T07:13:18;2.60;99.90
38428;DHT22;24211;49.980;19.776;2022-12-20T07:15:46;2.60;99.90
38428;DHT22;24211;49.980;19.776;2022-12-20T07:18:13;2.60;99.90
38428;DHT22;24211;49.980;19.776;2022-12-20T07:20:41;2.60;99.90
38428;DHT22;24211;49.980;19.776;2022-12-20T07:23:08;2.60;99.90
38428;DHT22;24211;49.980;19.776;2022-12-20T07:25:35;2.60;99.90
38428;DHT22;24211;49.980;19.776;2022-12-20T07:28:05;2.60;99.90
38428;DHT22;24211;49.980;19.776;2022-12-20T07:30:36;2.60;99.90
38428;DHT22;24211;49.980;19.776;2022-12-20T07:33:03;2.60;99.90
38428;DHT22;24211;49.980;19.776;2022-12-20T07:35:30;2.60;99.90
38428;DHT22;24211;49.980;19.776;2022-12-20T07:37:58;2.50;99.90
38428;DHT22;24211;49.980;19.776;2022-12-20T07:40:25;2.60;99.90
38428;DHT22;24211;49.980;19.776;2022-12-20T07:42:52;2.60;99.90
38428;DHT22;24211;49.980;19.776;2022-12-20T07:45:19;2.60;99.90
38428;DHT22;24211;49.980;19.776;2022-12-20T07:47:46;2.60;99.90
38428;DHT22;24211;49.980;19.776;2022-12-20T07:50:13;2.60;99.90
38428;DHT22;24211;49.980;19.776;2022-12-20T07:52:43;2.60;99.90
38428;DHT22;24211;49.980;19.776;2022-12-20T08:00:58;2.60;99.90
38428;DHT22;24211;49.980;19.776;2022-12-20T08:07:08;2.60;99.90
38428;DHT22;24211;49.980;19.776;2022-12-20T08:09:39;2.60;99.90
38428;DHT22;24211;49.980;19.776;2022-12-20T08:12:11;2.60;99.90
38428;DHT22;24211;49.980;19.776;2022-12-20T08:14:44;2.60;99.90
38428;DHT22;24211;49.980;19.776;2022-12-20T08:17:22;2.60;99.90
38428;DHT22;24211;49.980;19.776;2022-12-20T08:33:24;2.60;99.90
38428;DHT22;24211;49.980;19.776;2022-12-20T08:35:57;2.70;99.90
38428;DHT22;24211;49.980;19.776;2022-12-20T08:38:29;2.60;99.90
38428;DHT22;24211;49.980;19.776;2022-12-20T08:41:05;2.70;99.90
38428;DHT22;24211;49.980;19.776;2022-12-20T08:43:37;2.70;99.90
38428;DHT22;24211;49.980;19.776;2022-12-20T08:46:06;2.60;99.90
38428;DHT22;24211;49.980;19.776;2022-12-20T08:48:34;2.70;99.90
38428;DHT22;24211;49.980;19.776;2022-12-20T08:51:07;2.70;99.90
38428;DHT22;24211;49.980;19.776;2022-12-20T08:53:38;2.60;99.90
38428;DHT22;24211;49.980;19.776;2022-12-20T08:56:17;2.60;99.90
38428;DHT22;24211;49.980;19.776;2022-12-20T08:58:47;2.70;99.90
38428;DHT22;24211;49.980;19.776;2022-12-20T09:01:19;2.60;99.90
38428;DHT22;24211;49.980;19.776;2022-12-20T09:33:57;2.70;99.90
38428;DHT22;24211;49.980;19.776;2022-12-20T09:36:26;2.70;99.90
38428;DHT22;24211;49.980;19.776;2022-12-20T09:38:55;2.70;99.90
38428;DHT22;24211;49.980;19.776;2022-12-20T09:41:32;2.70;99.90
38428;DHT22;24211;49.980;19.776;2022-12-20T10:34:36;2.80;99.90
38428;DHT22;24211;49.980;19.776;2022-12-20T10:37:14;2.80;99.90
38428;DHT22;24211;49.980;19.776;2022-12-20T10:39:47;2.80;99.90
38428;DHT22;24211;49.980;19.776;2022-12-20T10:42:24;2.80;99.90
38428;DHT22;24211;49.980;19.776;2022-12-20T10:45:25;2.80;99.90
38428;DHT22;24211;49.980;19.776;2022-12-20T10:48:05;2.90;99.90
38428;DHT22;24211;49.980;19.776;2022-12-20T10:51:03;2.90;99.90
38428;DHT22;24211;49.980;19.776;2022-12-20T13:22:28;2.90;99.90
38428;DHT22;24211;49.980;19.776;2022-12-20T13:25:00;2.90;99.90
38428;DHT22;24211;49.980;19.776;2022-12-20T13:37:56;3.00;99.90
38428;DHT22;24211;49.980;19.776;2022-12-20T13:40:47;3.00;99.90
38428;DHT22;24211;49.980;19.776;2022-12-20T13:51:04;3.10;99.90
38428;DHT22;24211;49.980;19.776;2022-12-20T13:53:34;3.10;99.90
38428;DHT22;24211;49.980;19.776;2022-12-20T13:56:30;3.10;99.90
38428;DHT22;24211;49.980;19.776;2022-12-20T13:59:25;3.10;99.90
38428;DHT22;24211;49.980;19.776;2022-12-20T14:01:59;3.20;99.90
38428;DHT22;24211;49.980;19.776;2022-12-20T14:04:42;3.10;99.90
38428;DHT22;24211;49.980;19.776;2022-12-20T14:07:14;3.10;99.90
38428;DHT22;24211;49.980;19.776;2022-12-20T14:09:46;3.10;99.90
38428;DHT22;24211;49.980;19.776;2022-12-20T14:12:20;3.10;99.90
38428;DHT22;24211;49.980;19.776;2022-12-20T14:14:57;3.10;99.90
38428;DHT22;24211;49.980;19.776;2022-12-20T14:17:30;3.10;99.90
38428;DHT22;24211;49.980;19.776;2022-12-20T14:20:12;3.20;99.90
38428;DHT22;24211;49.980;19.776;2022-12-20T14:23:03;3.20;99.90
38428;DHT22;24211;49.980;19.776;2022-12-20T14:25:50;3.20;99.90
38428;DHT22;24211;49.980;19.776;2022-12-20T14:28:38;3.20;99.90
38428;DHT22;24211;49.980;19.776;2022-12-20T14:36:38;3.20;99.90
38428;DHT22;24211;49.980;19.776;2022-12-20T14:39:32;3.20;99.90
38428;DHT22;24211;49.980;19.776;2022-12-20T14:42:12;3.20;99.90
38428;DHT22;24211;49.980;19.776;2022-12-20T14:44:39;3.20;99.90
38428;DHT22;24211;49.980;19.776;2022-12-20T14:47:21;3.20;99.90
38428;DHT22;24211;49.980;19.776;2022-12-20T14:49:58;3.30;99.90
38428;DHT22;24211;49.980;19.776;2022-12-20T14:52:37;3.20;99.90
38428;DHT22;24211;49.980;19.776;2022-12-20T14:55:15;3.20;99.90
38428;DHT22;24211;49.980;19.776;2022-12-20T14:57:53;3.30;99.90
38428;DHT22;24211;49.980;19.776;2022-12-20T15:00:29;3.30;99.90
38428;DHT22;24211;49.980;19.776;2022-12-20T15:03:11;3.20;99.90
38428;DHT22;24211;49.980;19.776;2022-12-20T15:05:54;3.30;99.90
38428;DHT22;24211;49.980;19.776;2022-12-20T15:08:24;3.20;99.90
38428;DHT22;24211;49.980;19.776;2022-12-20T15:13:43;3.30;99.90
38428;DHT22;24211;49.980;19.776;2022-12-20T15:16:28;3.30;99.90
38428;DHT22;24211;49.980;19.776;2022-12-20T15:19:01;3.30;99.90
38428;DHT22;24211;49.980;19.776;2022-12-20T15:21:39;3.30;99.90
38428;DHT22;24211;49.980;19.776;2022-12-20T15:24:17;3.30;99.90
38428;DHT22;24211;49.980;19.776;2022-12-20T15:26:48;3.30;99.90
38428;DHT22;24211;49.980;19.776;2022-12-20T15:29:18;3.30;99.90
38428;DHT22;24211;49.980;19.776;2022-12-20T15:31:47;3.30;99.90
38428;DHT22;24211;49.980;19.776;2022-12-20T15:34:26;3.30;99.90
38428;DHT22;24211;49.980;19.776;2022-12-20T15:36:57;3.30;99.90
38428;DHT22;24211;49.980;19.776;2022-12-20T15:39:26;3.30;99.90
38428;DHT22;24211;49.980;19.776;2022-12-20T15:41:54;3.30;99.90
38428;DHT22;24211;49.980;19.776;2022-12-20T15:44:26;3.30;99.90
38428;DHT22;24211;49.980;19.776;2022-12-20T15:46:55;3.30;99.90
38428;DHT22;24211;49.980;19.776;2022-12-20T15:49:25;3.30;99.90
38428;DHT22;24211;49.980;19.776;2022-12-20T15:51:55;3.30;99.90
38428;DHT22;24211;49.980;19.776;2022-12-20T15:54:28;3.30;99.90
38428;DHT22;24211;49.980;19.776;2022-12-20T15:57:00;3.30;99.90
38428;DHT22;24211;49.980;19.776;2022-12-20T15:59:30;3.30;99.90
38428;DHT22;24211;49.980;19.776;2022-12-20T16:02:21;3.30;99.90
38428;DHT22;24211;49.980;19.776;2022-12-20T16:04:54;3.30;99.90
38428;DHT22;24211;49.980;19.776;2022-12-20T16:07:21;3.30;99.90
38428;DHT22;24211;49.980;19.776;2022-12-20T16:09:49;3.30;99.90
38428;DHT22;24211;49.980;19.776;2022-12-20T16:12:25;3.30;99.90
38428;DHT22;24211;49.980;19.776;2022-12-20T16:14:55;3.30;99.90
38428;DHT22;24211;49.980;19.776;2022-12-20T16:17:23;3.30;99.90
38428;DHT22;24211;49.980;19.776;2022-12-20T16:19:50;3.30;99.90
38428;DHT22;24211;49.980;19.776;2022-12-20T16:22:28;3.40;99.90
38428;DHT22;24211;49.980;19.776;2022-12-20T16:24:55;3.40;99.90
38428;DHT22;24211;49.980;19.776;2022-12-20T16:27:23;3.40;99.90
38428;DHT22;24211;49.980;19.776;2022-12-20T16:29:50;3.40;99.90
38428;DHT22;24211;49.980;19.776;2022-12-20T16:32:19;3.30;99.90
38428;DHT22;24211;49.980;19.776;2022-12-20T16:34:49;3.30;99.90
38428;DHT22;24211;49.980;19.776;2022-12-20T16:37:17;3.40;99.90
38428;DHT22;24211;49.980;19.776;2022-12-20T16:39:44;3.30;99.90
38428;DHT22;24211;49.980;19.776;2022-12-20T16:42:13;3.00;99.90
38428;DHT22;24211;49.980;19.776;2022-12-20T16:44:43;2.70;99.90
38428;DHT22;24211;49.980;19.776;2022-12-20T16:47:12;2.70;99.90
38428;DHT22;24211;49.980;19.776;2022-12-20T16:49:41;2.60;99.90
38428;DHT22;24211;49.980;19.776;2022-12-20T16:52:20;2.90;99.90
38428;DHT22;24211;49.980;19.776;2022-12-20T16:54:49;3.10;99.90
38428;DHT22;24211;49.980;19.776;2022-12-20T16:57:18;3.00;99.90
38428;DHT22;24211;49.980;19.776;2022-12-20T16:59:45;2.90;99.90
38428;DHT22;24211;49.980;19.776;2022-12-20T17:02:33;3.10;99.90
38428;DHT22;24211;49.980;19.776;2022-12-20T17:05:01;3.20;99.90
38428;DHT22;24211;49.980;19.776;2022-12-20T17:07:31;3.30;99.90
38428;DHT22;24211;49.980;19.776;2022-12-20T17:10:05;3.30;99.90
38428;DHT22;24211;49.980;19.776;2022-12-20T17:12:36;3.40;99.90
38428;DHT22;24211;49.980;19.776;2022-12-20T17:15:03;3.40;99.90
38428;DHT22;24211;49.980;19.776;2022-12-20T17:17:31;3.40;99.90
38428;DHT22;24211;49.980;19.776;2022-12-20T17:19:58;3.40;99.90
38428;DHT22;24211;49.980;19.776;2022-12-20T17:22:27;3.40;99.90
38428;DHT22;24211;49.980;19.776;2022-12-20T17:24:54;3.40;99.90
38428;DHT22;24211;49.980;19.776;2022-12-20T17:27:21;3.40;99.90
38428;DHT22;24211;49.980;19.776;2022-12-20T17:29:48;3.40;99.90
38428;DHT22;24211;49.980;19.776;2022-12-20T17:32:22;3.40;99.90
38428;DHT22;24211;49.980;19.776;2022-12-20T17:34:51;3.40;99.90
38428;DHT22;24211;49.980;19.776;2022-12-20T17:37:19;3.40;99.90
38428;DHT22;24211;49.980;19.776;2022-12-20T17:39:47;3.40;99.90
38428;DHT22;24211;49.980;19.776;2022-12-20T17:42:15;3.40;99.90
38428;DHT22;24211;49.980;19.776;2022-12-20T17:44:42;3.40;99.90
38428;DHT22;24211;49.980;19.776;2022-12-20T17:47:09;3.40;99.90
38428;DHT22;24211;49.980;19.776;2022-12-20T17:49:37;3.40;99.90
38428;DHT22;24211;49.980;19.776;2022-12-20T17:52:05;3.40;99.90
38428;DHT22;24211;49.980;19.776;2022-12-20T17:54:32;3.40;99.90
38428;DHT22;24211;49.980;19.776;2022-12-20T17:57:24;3.40;99.90
38428;DHT22;24211;49.980;19.776;2022-12-20T17:59:51;3.40;99.90
38428;DHT22;24211;49.980;19.776;2022-12-20T18:02:23;3.40;99.90
38428;DHT22;24211;49.980;19.776;2022-12-20T18:04:52;3.50;99.90
38428;DHT22;24211;49.980;19.776;2022-12-20T18:07:20;3.50;99.90
38428;DHT22;24211;49.980;19.776;2022-12-20T18:09:47;3.40;99.90
38428;DHT22;24211;49.980;19.776;2022-12-20T18:12:15;3.50;99.90
38428;DHT22;24211;49.980;19.776;2022-12-20T18:14:43;3.40;99.90
38428;DHT22;24211;49.980;19.776;2022-12-20T18:17:10;3.40;99.90
38428;DHT22;24211;49.980;19.776;2022-12-20T18:19:38;3.40;99.90
38428;DHT22;24211;49.980;19.776;2022-12-20T18:22:06;3.40;99.90
38428;DHT22;24211;49.980;19.776;2022-12-20T18:24:33;3.40;99.90
38428;DHT22;24211;49.980;19.776;2022-12-20T18:27:00;3.40;99.90
38428;DHT22;24211;49.980;19.776;2022-12-20T18:29:28;3.40;99.90
38428;DHT22;24211;49.980;19.776;2022-12-20T18:31:55;3.50;99.90
38428;DHT22;24211;49.980;19.776;2022-12-20T18:34:23;3.40;99.90
38428;DHT22;24211;49.980;19.776;2022-12-20T18:36:50;3.50;99.90
38428;DHT22;24211;49.980;19.776;2022-12-20T18:39:17;3.50;99.90
38428;DHT22;24211;49.980;19.776;2022-12-20T18:41:45;3.50;99.90
38428;DHT22;24211;49.980;19.776;2022-12-20T18:44:13;3.50;99.90
38428;DHT22;24211;49.980;19.776;2022-12-20T18:46:41;3.50;99.90
38428;DHT22;24211;49.980;19.776;2022-12-20T18:49:08;3.50;99.90
38428;DHT22;24211;49.980;19.776;2022-12-20T18:51:36;3.50;99.90
38428;DHT22;24211;49.980;19.776;2022-12-20T18:54:04;3.40;99.90
38428;DHT22;24211;49.980;19.776;2022-12-20T18:56:36;3.50;99.90
38428;DHT22;24211;49.980;19.776;2022-12-20T18:59:05;3.50;99.90
38428;DHT22;24211;49.980;19.776;2022-12-20T19:01:39;3.50;99.90
38428;DHT22;24211;49.980;19.776;2022-12-20T19:04:08;3.50;99.90
38428;DHT22;24211;49.980;19.776;2022-12-20T19:06:37;3.50;99.90
38428;DHT22;24211;49.980;19.776;2022-12-20T19:09:07;3.50;99.90
38428;DHT22;24211;49.980;19.776;2022-12-20T19:11:37;3.50;99.90
38428;DHT22;24211;49.980;19.776;2022-12-20T19:14:05;3.50;99.90
38428;DHT22;24211;49.980;19.776;2022-12-20T19:16:33;3.50;99.90
38428;DHT22;24211;49.980;19.776;2022-12-20T19:19:02;3.50;99.90
38428;DHT22;24211;49.980;19.776;2022-12-20T19:21:34;3.50;99.90
38428;DHT22;24211;49.980;19.776;2022-12-20T19:24:04;3.50;99.90
38428;DHT22;24211;49.980;19.776;2022-12-20T19:26:35;3.50;99.90
38428;DHT22;24211;49.980;19.776;2022-12-20T19:29:04;3.50;99.90
38428;DHT22;24211;49.980;19.776;2022-12-20T19:31:34;3.50;99.90
38428;DHT22;24211;49.980;19.776;2022-12-20T19:34:06;3.50;99.90
38428;DHT22;24211;49.980;19.776;2022-12-20T19:36:37;3.50;99.90
38428;DHT22;24211;49.980;19.776;2022-12-20T19:39:11;3.50;99.90
38428;DHT22;24211;49.980;19.776;2022-12-20T19:41:44;3.50;99.90
38428;DHT22;24211;49.980;19.776;2022-12-20T19:44:31;3.50;99.90
38428;DHT22;24211;49.980;19.776;2022-12-20T19:46:58;3.50;99.90
38428;DHT22;24211;49.980;19.776;2022-12-20T19:49:32;3.50;99.90
38428;DHT22;24211;49.980;19.776;2022-12-20T19:52:05;3.50;99.90
38428;DHT22;24211;49.980;19.776;2022-12-20T19:54:33;3.50;99.90
38428;DHT22;24211;49.980;19.776;2022-12-20T19:57:01;3.50;99.90
38428;DHT22;24211;49.980;19.776;2022-12-20T19:59:28;3.50;99.90
38428;DHT22;24211;49.980;19.776;2022-12-20T20:01:57;3.50;99.90
38428;DHT22;24211;49.980;19.776;2022-12-20T20:04:25;3.50;99.90
38428;DHT22;24211;49.980;19.776;2022-12-20T20:06:53;3.50;99.90
38428;DHT22;24211;49.980;19.776;2022-12-20T20:09:22;3.60;99.90
38428;DHT22;24211;49.980;19.776;2022-12-20T20:11:49;3.60;99.90
38428;DHT22;24211;49.980;19.776;2022-12-20T20:14:16;3.50;99.90
38428;DHT22;24211;49.980;19.776;2022-12-20T20:16:43;3.50;99.90
38428;DHT22;24211;49.980;19.776;2022-12-20T20:19:10;3.60;99.90
38428;DHT22;24211;49.980;19.776;2022-12-20T20:21:38;3.60;99.90
38428;DHT22;24211;49.980;19.776;2022-12-20T20:24:05;3.60;99.90
38428;DHT22;24211;49.980;19.776;2022-12-20T20:26:34;3.60;99.90
38428;DHT22;24211;49.980;19.776;2022-12-20T20:29:02;3.60;99.90
38428;DHT22;24211;49.980;19.776;2022-12-20T20:31:30;3.60;99.90
38428;DHT22;24211;49.980;19.776;2022-12-20T20:33:57;3.60;99.90
38428;DHT22;24211;49.980;19.776;2022-12-20T20:36:24;3.60;99.90
38428;DHT22;24211;49.980;19.776;2022-12-20T20:38:52;3.60;99.90
38428;DHT22;24211;49.980;19.776;2022-12-20T20:41:19;3.60;99.90
38428;DHT22;24211;49.980;19.776;2022-12-20T20:43:46;3.60;99.90
38428;DHT22;24211;49.980;19.776;2022-12-20T20:46:16;3.60;99.90
38428;DHT22;24211;49.980;19.776;2022-12-20T20:48:43;3.60;99.90
38428;DHT22;24211;49.980;19.776;2022-12-20T20:51:11;3.60;99.90
38428;DHT22;24211;49.980;19.776;2022-12-20T20:53:39;3.60;99.90
38428;DHT22;24211;49.980;19.776;2022-12-20T20:56:07;3.60;99.90
38428;DHT22;24211;49.980;19.776;2022-12-20T20:58:36;3.60;99.90